Terminal Aerodrome Forecast
Issued by NWS

Home | Current Version | Previous Version | Text Only | Print | Product List | Glossary On
Versions: 1 2 3 4 5 6 7 8 9 10 11 12 13 14 15 16 17 18 19 20
000
FTUS43 KSGF 232300
TAFJLN
TAF
KJLN 232326Z 2400/2424 15014KT P6SM SCT250
     FM240300 16017G25KT P6SM SCT150 BKN200 WS018/19055KT
     FM241300 18017G27KT P6SM -SHRA SCT050 OVC080 PROB30 2413/2417
      5SM -TSRA BKN030CB
     FM241700 21014G23KT P6SM -SHRA VCTS BKN040CB OVC080
      TEMPO 2417/2421 4SM TSRA BR BKN030CB
     FM242100 28015G24KT P6SM -SHRA VCTS OVC040CB=

USA.gov is the U.S. government's official web portal to all federal, state and local government web resources and services.